createdAt,value
2023-05-15T00:00:29.286Z,17.23
2023-05-15T00:02:57.388Z,13.60
2023-05-15T00:05:24.818Z,11.98
2023-05-15T00:07:52.147Z,12.55
2023-05-15T00:10:19.362Z,15.98
2023-05-15T00:12:46.464Z,13.95
2023-05-15T00:15:13.616Z,14.80
2023-05-15T00:17:40.970Z,13.27
2023-05-15T00:20:09.978Z,13.02
2023-05-15T00:22:37.181Z,10.88
2023-05-15T00:25:04.639Z,16.23
2023-05-15T00:27:31.769Z,14.73
2023-05-15T00:29:58.840Z,15.23
2023-05-15T00:32:26.054Z,15.40
2023-05-15T00:34:53.201Z,20.67
2023-05-15T00:37:20.321Z,17.75
2023-05-15T00:39:47.438Z,15.73
2023-05-15T00:42:14.528Z,20.80
2023-05-15T00:44:41.600Z,17.98
2023-05-15T00:47:08.841Z,16.45
2023-05-15T00:49:37.306Z,16.13
2023-05-15T00:52:05.558Z,17.48
2023-05-15T00:54:32.686Z,16.27
2023-05-15T00:56:59.947Z,17.55
2023-05-15T00:59:27.284Z,18.48
2023-05-15T01:01:54.524Z,17.02
2023-05-15T01:04:21.781Z,15.73
2023-05-15T01:06:49.031Z,15.30
2023-05-15T01:09:16.361Z,13.25
2023-05-15T01:11:43.471Z,16.48
2023-05-15T01:14:10.600Z,15.15
2023-05-15T01:16:38.831Z,16.67
2023-05-15T01:19:06.054Z,15.60
2023-05-15T01:21:33.209Z,17.52
2023-05-15T01:24:17.173Z,15.23
2023-05-15T01:27:03.010Z,19.60
2023-05-15T01:29:49.146Z,16.27
2023-05-15T01:32:19.541Z,16.30
2023-05-15T01:34:54.414Z,16.05
2023-05-15T01:37:22.943Z,15.88
2023-05-15T01:39:50.670Z,16.92
2023-05-15T01:42:17.981Z,22.05
2023-05-15T01:44:46.289Z,22.40
2023-05-15T01:47:14.690Z,22.42
2023-05-15T01:49:42.028Z,16.88
2023-05-15T01:52:10.745Z,17.20
2023-05-15T01:54:37.839Z,17.23
2023-05-15T01:57:05.081Z,16.45
2023-05-15T01:59:32.307Z,14.88
2023-05-15T02:01:59.436Z,15.98
2023-05-15T02:04:26.619Z,18.20
2023-05-15T02:06:54.313Z,17.58
2023-05-15T02:09:21.574Z,21.13
2023-05-15T02:11:48.750Z,19.48
2023-05-15T02:14:15.978Z,19.85
2023-05-15T02:16:43.184Z,22.13
2023-05-15T02:19:10.501Z,18.95
2023-05-15T02:21:37.676Z,18.25
2023-05-15T02:24:04.881Z,18.52
2023-05-15T02:26:35.021Z,16.50
2023-05-15T02:29:07.958Z,20.58
2023-05-15T02:31:50.518Z,17.58
2023-05-15T02:34:26.876Z,18.83
2023-05-15T02:36:54.043Z,16.30
2023-05-15T02:39:23.511Z,14.68
2023-05-15T02:41:52.270Z,16.42
2023-05-15T02:44:19.575Z,17.88
2023-05-15T02:46:46.771Z,20.35
2023-05-15T02:49:13.854Z,19.88
2023-05-15T02:51:41.080Z,25.50
2023-05-15T02:54:09.519Z,26.45
2023-05-15T02:56:36.883Z,22.58
2023-05-15T02:59:04.079Z,21.30
2023-05-15T03:01:31.342Z,19.92
2023-05-15T03:03:58.830Z,21.13
2023-05-15T03:06:26.008Z,23.52
2023-05-15T03:08:53.140Z,21.77
2023-05-15T03:11:21.317Z,22.20
2023-05-15T03:13:48.580Z,22.83
2023-05-15T03:16:15.920Z,24.40
2023-05-15T03:18:43.076Z,24.13
2023-05-15T03:21:10.585Z,22.25
2023-05-15T03:23:38.058Z,23.50
2023-05-15T03:26:05.413Z,21.30
2023-05-15T03:28:32.593Z,20.73
2023-05-15T03:30:59.746Z,24.23
2023-05-15T03:33:26.950Z,22.55
2023-05-15T03:35:54.087Z,23.17
2023-05-15T03:38:21.328Z,22.00
2023-05-15T03:40:50.879Z,21.38
2023-05-15T03:43:18.308Z,20.60
2023-05-15T03:45:45.654Z,21.77
2023-05-15T03:48:12.799Z,20.58
2023-05-15T03:50:40.352Z,18.00
2023-05-15T03:53:07.480Z,21.13
2023-05-15T03:55:34.565Z,22.15
2023-05-15T03:58:01.701Z,28.23
2023-05-15T04:00:28.840Z,29.52
2023-05-15T04:02:56.101Z,26.48
2023-05-15T04:05:23.527Z,26.30
2023-05-15T04:07:50.920Z,26.02
2023-05-15T04:10:18.104Z,28.17
2023-05-15T04:12:45.224Z,28.45
2023-05-15T04:15:21.410Z,30.73
2023-05-15T04:17:49.492Z,30.73
2023-05-15T04:20:17.416Z,33.92
2023-05-15T04:22:44.660Z,33.30
2023-05-15T04:25:12.175Z,31.48
2023-05-15T04:27:39.310Z,29.15
2023-05-15T04:30:06.743Z,26.23
2023-05-15T04:32:34.032Z,28.63
2023-05-15T04:35:01.662Z,28.98
2023-05-15T04:37:29.144Z,27.27
2023-05-15T04:39:56.300Z,27.70
2023-05-15T04:42:23.409Z,29.67
2023-05-15T04:44:51.060Z,31.63
2023-05-15T04:47:18.294Z,27.95
2023-05-15T04:49:45.578Z,28.70
2023-05-15T04:52:12.680Z,25.92
2023-05-15T04:54:39.825Z,23.42
2023-05-15T04:57:06.907Z,23.40
2023-05-15T04:59:34.172Z,24.23
2023-05-15T05:02:01.654Z,26.13
2023-05-15T05:04:29.000Z,21.92
2023-05-15T05:06:56.084Z,19.13
2023-05-15T05:09:23.273Z,19.80
2023-05-15T05:11:50.417Z,18.25
2023-05-15T05:14:17.591Z,15.57
2023-05-15T05:16:47.515Z,14.57
2023-05-15T05:19:14.699Z,13.50
2023-05-15T05:21:41.923Z,13.38
2023-05-15T05:24:09.121Z,13.10
2023-05-15T05:26:36.271Z,12.23
2023-05-15T05:29:03.373Z,12.00
2023-05-15T05:31:30.518Z,12.70
2023-05-15T05:33:57.616Z,11.75
2023-05-15T05:36:24.728Z,12.40
2023-05-15T05:38:51.998Z,12.77
2023-05-15T05:41:19.146Z,13.63
2023-05-15T05:43:46.244Z,12.05
2023-05-15T05:46:13.520Z,10.65
2023-05-15T05:48:40.667Z,10.10
2023-05-15T05:51:07.766Z,10.65
2023-05-15T05:53:34.918Z,9.85
2023-05-15T05:56:02.031Z,11.43
2023-05-15T05:58:29.152Z,11.63
2023-05-15T06:00:56.457Z,10.82
2023-05-15T06:03:24.114Z,10.68
2023-05-15T06:05:51.341Z,11.05
2023-05-15T06:08:18.659Z,10.50
2023-05-15T06:10:46.012Z,9.82
2023-05-15T06:13:14.818Z,11.90
2023-05-15T06:15:42.338Z,8.77
2023-05-15T06:18:09.491Z,5.95
2023-05-15T06:20:36.679Z,4.95
2023-05-15T06:23:03.909Z,5.03
2023-05-15T06:25:31.095Z,13.45
2023-05-15T06:27:58.208Z,11.48
2023-05-15T06:30:25.713Z,19.65
2023-05-15T06:32:53.779Z,17.70
2023-05-15T06:35:22.993Z,19.33
2023-05-15T06:37:51.872Z,9.25
2023-05-15T06:40:19.000Z,7.03
2023-05-15T06:42:47.180Z,5.60
2023-05-15T06:45:14.341Z,5.72
2023-05-15T06:47:41.464Z,5.30
2023-05-15T06:50:08.791Z,6.13
2023-05-15T06:52:35.927Z,6.20
2023-05-15T06:55:03.061Z,6.25
2023-05-15T06:57:30.167Z,6.47
2023-05-15T06:59:57.494Z,7.75
2023-05-15T07:02:24.846Z,7.03
2023-05-15T07:04:51.993Z,4.90
2023-05-15T07:07:19.141Z,4.70
2023-05-15T07:09:48.378Z,3.88
2023-05-15T07:12:15.726Z,3.17
2023-05-15T07:14:42.866Z,4.13
2023-05-15T07:17:09.990Z,3.00
2023-05-15T07:19:37.195Z,16.90
2023-05-15T07:22:04.403Z,3.05
2023-05-15T07:24:31.513Z,3.60
2023-05-15T07:26:59.531Z,9.40
2023-05-15T07:29:26.812Z,18.23
2023-05-15T07:31:54.112Z,20.63
2023-05-15T07:34:21.259Z,26.88
2023-05-15T07:36:48.434Z,10.90
2023-05-15T07:39:16.040Z,6.47
2023-05-15T07:41:46.983Z,4.03
2023-05-15T07:44:14.156Z,4.10
2023-05-15T07:46:41.446Z,4.28
2023-05-15T07:49:08.603Z,4.22
2023-05-15T07:51:35.817Z,3.85
2023-05-15T07:54:04.234Z,4.35
2023-05-15T07:56:31.722Z,4.07
2023-05-15T07:58:58.939Z,6.47
2023-05-15T08:01:26.096Z,6.28
2023-05-15T08:03:53.375Z,3.60
2023-05-15T08:06:20.590Z,4.57
2023-05-15T08:08:47.722Z,4.18
2023-05-15T08:11:14.844Z,5.00
2023-05-15T08:13:42.000Z,5.07
2023-05-15T08:16:09.213Z,3.67
2023-05-15T08:18:36.445Z,4.28
2023-05-15T08:21:04.779Z,3.85
2023-05-15T08:23:32.003Z,3.88
2023-05-15T08:25:59.359Z,6.32
2023-05-15T08:28:26.526Z,5.80
2023-05-15T08:30:53.667Z,4.50
2023-05-15T08:33:20.790Z,3.70
2023-05-15T08:35:47.981Z,5.03
2023-05-15T08:38:15.104Z,4.47
2023-05-15T08:40:42.543Z,4.45
2023-05-15T08:43:13.975Z,7.78
2023-05-15T08:45:41.501Z,9.00
2023-05-15T08:48:11.105Z,4.13
2023-05-15T08:50:39.837Z,4.03
2023-05-15T08:53:07.014Z,17.17
2023-05-15T08:55:34.130Z,16.42
2023-05-15T08:58:01.272Z,11.15
2023-05-15T09:00:28.382Z,13.52
2023-05-15T09:02:55.659Z,5.75
2023-05-15T09:05:22.919Z,8.25
2023-05-15T09:07:50.311Z,8.68
2023-05-15T09:10:17.499Z,5.22
2023-05-15T09:12:44.949Z,5.95
2023-05-15T09:15:13.103Z,6.03
2023-05-15T09:17:40.431Z,8.80
2023-05-15T09:20:08.552Z,4.75
2023-05-15T09:22:38.671Z,4.88
2023-05-15T09:25:06.347Z,5.90
2023-05-15T09:27:41.817Z,7.93
2023-05-15T09:30:09.636Z,6.10
2023-05-15T09:32:37.442Z,5.00
2023-05-15T09:35:04.824Z,4.55
2023-05-15T09:37:32.604Z,6.28
2023-05-15T09:40:11.945Z,9.75
2023-05-15T09:42:39.112Z,9.63
2023-05-15T09:45:06.715Z,14.48
2023-05-15T09:47:34.223Z,10.57
2023-05-15T09:50:01.612Z,8.10
2023-05-15T09:52:30.081Z,8.75
2023-05-15T09:54:57.993Z,12.85
2023-05-15T09:57:25.201Z,9.00
2023-05-15T09:59:52.378Z,7.72
2023-05-15T10:02:28.188Z,6.85
2023-05-15T10:04:56.825Z,6.03
2023-05-15T10:07:34.322Z,7.85
2023-05-15T10:10:02.453Z,5.70
2023-05-15T10:12:29.811Z,5.38
2023-05-15T10:14:58.390Z,6.40
2023-05-15T10:17:26.263Z,6.10
2023-05-15T10:19:58.261Z,4.70
2023-05-15T10:22:25.978Z,5.38
2023-05-15T10:24:53.773Z,3.92
2023-05-15T10:27:20.888Z,2.58
2023-05-15T10:29:48.037Z,3.05
2023-05-15T10:32:15.238Z,4.07
2023-05-15T10:34:42.319Z,3.60
2023-05-15T10:37:09.478Z,3.33
2023-05-15T10:39:36.551Z,3.92
2023-05-15T10:42:03.942Z,7.22
2023-05-15T10:44:31.051Z,4.07
2023-05-15T10:46:58.211Z,4.13
2023-05-15T10:49:25.792Z,4.53
2023-05-15T10:51:53.390Z,6.13
2023-05-15T10:54:20.463Z,6.53
2023-05-15T10:56:48.126Z,7.18
2023-05-15T10:59:16.521Z,5.28
2023-05-15T11:01:43.658Z,6.07
2023-05-15T11:04:11.763Z,3.72
2023-05-15T11:06:39.568Z,4.38
2023-05-15T11:09:27.382Z,6.15
2023-05-15T11:11:56.988Z,6.70
2023-05-15T11:14:33.762Z,3.42
2023-05-15T11:17:01.586Z,3.08
2023-05-15T11:19:35.252Z,3.40
2023-05-15T11:22:06.119Z,3.28
2023-05-15T11:24:37.637Z,3.90
2023-05-15T11:27:04.958Z,6.57
2023-05-15T11:29:32.115Z,6.88
2023-05-15T11:31:59.673Z,6.60
2023-05-15T11:34:44.875Z,4.20
2023-05-15T11:37:17.891Z,6.07
2023-05-15T11:39:45.025Z,3.35
2023-05-15T11:42:12.612Z,3.80
2023-05-15T11:44:39.710Z,3.42
2023-05-15T11:47:10.370Z,5.20
2023-05-15T11:49:38.234Z,2.83
2023-05-15T11:52:06.340Z,2.67
2023-05-15T11:54:33.456Z,3.90
2023-05-15T11:57:01.962Z,2.95
2023-05-15T11:59:29.092Z,3.97
2023-05-15T12:01:56.215Z,6.22
2023-05-15T12:04:23.447Z,3.92
2023-05-15T12:06:50.793Z,3.38
2023-05-15T12:09:19.494Z,4.05
2023-05-15T12:11:52.811Z,2.80
2023-05-15T12:14:27.172Z,2.13
2023-05-15T12:16:54.435Z,3.03
2023-05-15T12:19:28.148Z,2.40
2023-05-15T12:21:55.436Z,4.93
2023-05-15T12:24:23.496Z,3.75
2023-05-15T12:26:50.648Z,2.08
2023-05-15T12:29:17.772Z,2.20
2023-05-15T12:31:44.900Z,2.63
2023-05-15T12:34:12.105Z,2.35
2023-05-15T12:36:41.570Z,2.20
2023-05-15T12:39:09.085Z,1.70
2023-05-15T12:41:37.908Z,2.00
2023-05-15T12:44:05.618Z,2.53
2023-05-15T12:46:32.928Z,8.35
2023-05-15T12:49:00.133Z,4.35
2023-05-15T12:51:27.427Z,2.83
2023-05-15T12:53:54.577Z,1.85
2023-05-15T12:56:21.688Z,1.98
2023-05-15T12:58:48.946Z,1.58
2023-05-15T13:01:16.687Z,3.63
2023-05-15T13:03:44.511Z,1.42
2023-05-15T13:06:11.758Z,1.38
2023-05-15T13:08:42.004Z,2.45
2023-05-15T13:11:15.532Z,2.45
2023-05-15T13:13:51.666Z,1.50
2023-05-15T13:16:25.485Z,1.77
2023-05-15T13:18:52.917Z,2.97
2023-05-15T13:21:20.022Z,2.08
2023-05-15T13:23:47.190Z,3.03
2023-05-15T13:26:14.288Z,1.30
2023-05-15T13:28:41.662Z,1.08
2023-05-15T13:31:08.854Z,1.77
2023-05-15T13:33:36.013Z,3.17
2023-05-15T13:36:03.136Z,2.33
2023-05-15T13:38:30.551Z,2.33
2023-05-15T13:40:57.641Z,1.60
2023-05-15T13:43:26.537Z,0.93
2023-05-15T13:45:53.945Z,2.55
2023-05-15T13:48:21.055Z,1.77
2023-05-15T13:50:48.165Z,2.38
2023-05-15T13:53:16.961Z,1.17
2023-05-15T13:55:47.001Z,1.08
2023-05-15T13:58:14.170Z,2.05
2023-05-15T14:00:42.680Z,2.35
2023-05-15T14:03:11.190Z,0.90
2023-05-15T14:05:39.737Z,1.75
2023-05-15T14:08:06.881Z,3.08
2023-05-15T14:10:33.972Z,2.05
2023-05-15T14:13:01.182Z,52.20
2023-05-15T14:15:28.441Z,2.50
2023-05-15T14:17:55.635Z,2.17
2023-05-15T14:20:22.759Z,1.38
2023-05-15T14:22:49.927Z,4.22
2023-05-15T14:25:17.023Z,1.75
2023-05-15T14:27:44.157Z,2.03
2023-05-15T14:30:11.506Z,4.70
2023-05-15T14:32:38.768Z,4.18
2023-05-15T14:35:06.050Z,2.50
2023-05-15T14:37:33.167Z,18.20
2023-05-15T14:40:00.336Z,9.82
2023-05-15T14:42:27.449Z,4.18
2023-05-15T14:44:54.665Z,4.38
2023-05-15T14:47:21.805Z,5.03
2023-05-15T14:49:48.976Z,4.93
2023-05-15T14:52:16.120Z,1.40
2023-05-15T14:54:44.637Z,1.58
2023-05-15T14:57:13.287Z,1.50
2023-05-15T14:59:40.416Z,2.58
2023-05-15T15:02:07.562Z,2.55
2023-05-15T15:04:34.691Z,1.58
2023-05-15T15:07:04.608Z,3.88
2023-05-15T15:09:31.738Z,8.10
2023-05-15T15:11:58.844Z,3.30
2023-05-15T15:14:26.188Z,7.97
2023-05-15T15:16:53.334Z,2.70
2023-05-15T15:19:20.741Z,3.90
2023-05-15T15:21:48.088Z,1.80
2023-05-15T15:24:15.395Z,4.43
2023-05-15T15:26:42.573Z,6.80
2023-05-15T15:29:09.701Z,2.30
2023-05-15T15:31:36.814Z,2.97
2023-05-15T15:34:05.675Z,2.08
2023-05-15T15:36:33.172Z,1.75
2023-05-15T15:39:00.328Z,3.65
2023-05-15T15:41:27.389Z,4.28
2023-05-15T15:43:54.587Z,5.50
2023-05-15T15:46:21.817Z,7.53
2023-05-15T15:48:49.174Z,2.33
2023-05-15T15:51:16.300Z,3.35
2023-05-15T15:53:43.434Z,2.28
2023-05-15T15:56:10.630Z,1.60
2023-05-15T15:58:37.727Z,2.35
2023-05-15T16:01:04.922Z,2.72
2023-05-15T16:03:32.132Z,6.45
2023-05-15T16:06:00.325Z,1.50
2023-05-15T16:08:27.737Z,1.70
2023-05-15T16:10:55.089Z,3.28
2023-05-15T16:13:22.245Z,6.55
2023-05-15T16:15:49.350Z,12.55
2023-05-15T16:18:16.690Z,6.43
2023-05-15T16:20:43.825Z,10.70
2023-05-15T16:23:14.208Z,12.85
2023-05-15T16:25:41.383Z,7.75
2023-05-15T16:28:10.017Z,2.40
2023-05-15T16:30:47.935Z,4.13
2023-05-15T16:33:17.468Z,2.58
2023-05-15T16:35:44.750Z,2.08
2023-05-15T16:38:11.995Z,1.70
2023-05-15T16:40:39.134Z,3.97
2023-05-15T16:43:06.338Z,5.22
2023-05-15T16:45:33.469Z,2.30
2023-05-15T16:48:00.670Z,6.38
2023-05-15T16:50:27.908Z,3.00
2023-05-15T16:52:55.147Z,10.77
2023-05-15T16:55:22.392Z,7.40
2023-05-15T16:57:49.509Z,5.50
2023-05-15T17:00:16.822Z,4.78
2023-05-15T17:02:44.341Z,3.75
2023-05-15T17:05:11.854Z,3.45
2023-05-15T17:07:39.114Z,3.53
2023-05-15T17:10:06.941Z,2.95
2023-05-15T17:12:34.147Z,2.70
2023-05-15T17:15:01.303Z,3.75
2023-05-15T17:17:28.555Z,2.83
2023-05-15T17:19:55.989Z,2.20
2023-05-15T17:22:23.075Z,5.28
2023-05-15T17:24:51.778Z,2.55
2023-05-15T17:27:19.600Z,1.10
2023-05-15T17:29:46.764Z,4.55
2023-05-15T17:32:14.308Z,4.07
2023-05-15T17:34:41.562Z,3.08
2023-05-15T17:37:09.048Z,2.00
2023-05-15T17:39:36.232Z,2.50
2023-05-15T17:42:03.468Z,2.17
2023-05-15T17:44:31.148Z,1.58
2023-05-15T17:46:58.712Z,1.77
2023-05-15T17:49:26.322Z,1.42
2023-05-15T17:51:53.827Z,1.17
2023-05-15T17:54:20.979Z,1.52
2023-05-15T17:56:48.338Z,4.65
2023-05-15T17:59:15.451Z,5.35
2023-05-15T18:01:42.718Z,4.95
2023-05-15T18:04:10.081Z,9.90
2023-05-15T18:06:37.434Z,6.38
2023-05-15T18:09:05.103Z,5.07
2023-05-15T18:11:32.363Z,5.38
2023-05-15T18:13:59.580Z,4.28
2023-05-15T18:16:26.984Z,4.32
2023-05-15T18:18:54.211Z,2.00
2023-05-15T18:21:21.336Z,5.07
2023-05-15T18:23:48.522Z,23.20
2023-05-15T18:26:15.713Z,9.88
2023-05-15T18:28:42.782Z,22.70
2023-05-15T18:31:10.192Z,33.72
2023-05-15T18:33:37.390Z,40.75
2023-05-15T18:36:07.267Z,33.55
2023-05-15T18:38:34.717Z,15.65
2023-05-15T18:41:01.783Z,14.18
2023-05-15T18:43:28.880Z,12.23
2023-05-15T18:45:56.122Z,13.65
2023-05-15T18:48:23.256Z,9.13
2023-05-15T18:50:50.364Z,9.38
2023-05-15T18:53:17.516Z,6.93
2023-05-15T18:55:44.600Z,3.85
2023-05-15T18:58:11.662Z,4.85
2023-05-15T19:00:57.564Z,3.85
2023-05-15T19:03:25.764Z,9.05
2023-05-15T19:05:53.122Z,12.27
2023-05-15T19:08:20.502Z,22.88
2023-05-15T19:10:50.953Z,22.58
2023-05-15T19:13:18.916Z,25.40
2023-05-15T19:15:52.434Z,24.52
2023-05-15T19:18:19.661Z,15.55
2023-05-15T19:20:50.449Z,13.70
2023-05-15T19:23:17.655Z,6.65
2023-05-15T19:25:45.107Z,7.10
2023-05-15T19:28:12.980Z,5.93
2023-05-15T19:30:40.139Z,7.72
2023-05-15T19:33:07.283Z,7.38
2023-05-15T19:35:36.675Z,14.20
2023-05-15T19:38:04.613Z,36.00
2023-05-15T19:40:31.721Z,36.17
2023-05-15T19:42:58.814Z,32.45
2023-05-15T19:45:25.990Z,30.80
2023-05-15T19:47:53.261Z,27.80
2023-05-15T19:50:20.389Z,23.05
2023-05-15T19:52:47.601Z,22.55
2023-05-15T19:55:14.911Z,19.40
2023-05-15T19:57:42.622Z,16.67
2023-05-15T20:00:10.624Z,34.75
2023-05-15T20:02:37.901Z,23.70
2023-05-15T20:05:05.217Z,21.73
2023-05-15T20:07:32.369Z,24.60
2023-05-15T20:09:59.478Z,22.95
2023-05-15T20:12:26.585Z,31.30
2023-05-15T20:14:53.702Z,32.15
2023-05-15T20:17:20.797Z,48.85
2023-05-15T20:19:49.409Z,24.33
2023-05-15T20:22:17.604Z,24.60
2023-05-15T20:24:45.845Z,22.65
2023-05-15T20:27:12.955Z,25.40
2023-05-15T20:29:40.112Z,27.67
2023-05-15T20:32:07.386Z,29.25
2023-05-15T20:34:36.719Z,28.52
2023-05-15T20:37:04.039Z,29.60
2023-05-15T20:39:31.449Z,27.67
2023-05-15T20:41:58.619Z,27.63
2023-05-15T20:44:25.809Z,29.80
2023-05-15T20:46:52.939Z,31.75
2023-05-15T20:49:21.214Z,31.90
2023-05-15T20:51:48.849Z,22.15
2023-05-15T20:54:16.191Z,19.95
2023-05-15T20:56:43.345Z,24.58
2023-05-15T20:59:10.725Z,19.52
2023-05-15T21:01:38.079Z,21.98
2023-05-15T21:04:05.438Z,16.30
2023-05-15T21:06:32.653Z,16.60
2023-05-15T21:08:59.753Z,16.55
2023-05-15T21:11:27.030Z,18.40
2023-05-15T21:13:54.147Z,18.27
2023-05-15T21:16:21.287Z,29.55
2023-05-15T21:18:48.951Z,20.27
2023-05-15T21:21:16.583Z,28.10
2023-05-15T21:23:43.858Z,29.23
2023-05-15T21:26:11.108Z,29.58
2023-05-15T21:28:38.200Z,25.90
2023-05-15T21:31:10.677Z,23.38
2023-05-15T21:33:37.937Z,16.52
2023-05-15T21:36:05.310Z,18.58
2023-05-15T21:38:32.739Z,10.25
2023-05-15T21:40:59.912Z,11.63
2023-05-15T21:43:27.042Z,13.93
2023-05-15T21:45:57.054Z,10.38
2023-05-15T21:48:24.226Z,13.70
2023-05-15T21:50:52.402Z,14.52
2023-05-15T21:53:19.540Z,13.52
2023-05-15T21:55:48.267Z,5.82
2023-05-15T21:58:15.819Z,7.00
2023-05-15T22:00:42.913Z,4.70
2023-05-15T22:03:10.125Z,5.20
2023-05-15T22:05:37.336Z,6.43
2023-05-15T22:08:04.519Z,7.28
2023-05-15T22:10:31.586Z,5.28
2023-05-15T22:12:59.138Z,6.20
2023-05-15T22:15:26.288Z,5.90
2023-05-15T22:17:54.006Z,7.40
2023-05-15T22:20:21.386Z,7.50
2023-05-15T22:22:48.825Z,6.60
2023-05-15T22:25:16.242Z,5.40
2023-05-15T22:27:43.362Z,7.60
2023-05-15T22:30:10.602Z,11.73
2023-05-15T22:32:37.762Z,9.45
2023-05-15T22:35:05.269Z,7.70
2023-05-15T22:37:32.369Z,8.88
2023-05-15T22:39:59.793Z,6.15
2023-05-15T22:42:28.075Z,4.95
2023-05-15T22:44:58.103Z,8.02
2023-05-15T22:47:25.398Z,11.75
2023-05-15T22:49:52.529Z,7.15
2023-05-15T22:52:19.789Z,11.50
2023-05-15T22:54:46.881Z,8.10
2023-05-15T22:57:14.014Z,10.27
2023-05-15T22:59:41.532Z,9.63
2023-05-15T23:02:08.591Z,10.10
2023-05-15T23:04:36.256Z,6.68
2023-05-15T23:07:03.329Z,10.63
2023-05-15T23:09:30.508Z,14.52
2023-05-15T23:11:57.688Z,13.82
2023-05-15T23:14:25.423Z,10.93
2023-05-15T23:16:52.558Z,9.65
2023-05-15T23:19:19.806Z,9.13
2023-05-15T23:21:47.188Z,8.63
2023-05-15T23:24:14.289Z,9.20
2023-05-15T23:26:41.451Z,7.45
2023-05-15T23:29:08.584Z,8.98
2023-05-15T23:31:35.782Z,7.57
2023-05-15T23:34:02.956Z,9.05
2023-05-15T23:36:30.010Z,8.82
2023-05-15T23:38:57.072Z,9.52
2023-05-15T23:41:24.181Z,14.25
2023-05-15T23:43:51.446Z,17.48
2023-05-15T23:46:18.641Z,14.35
2023-05-15T23:48:45.846Z,11.35
2023-05-15T23:51:12.906Z,15.27
2023-05-15T23:53:40.005Z,10.80
2023-05-15T23:56:08.324Z,12.48
2023-05-15T23:58:35.426Z,9.20
